createdAt,value
2022-10-18T00:01:08.102Z,84.14
2022-10-18T00:06:09.401Z,84.57
2022-10-18T00:08:39.045Z,84.48
2022-10-18T00:11:07.933Z,84.54
2022-10-18T00:13:36.213Z,84.71
2022-10-18T00:16:09.961Z,84.37
2022-10-18T00:18:37.995Z,84.95
2022-10-18T00:21:11.806Z,84.98
2022-10-18T00:23:40.288Z,84.03
2022-10-18T00:26:15.421Z,84.42
2022-10-18T00:28:44.259Z,84.53
2022-10-18T00:31:16.982Z,84.24
2022-10-18T00:33:47.173Z,84.39
2022-10-18T00:36:15.969Z,84.18
2022-10-18T00:38:44.910Z,84.08
2022-10-18T00:41:17.010Z,84.26
2022-10-18T00:44:26.700Z,83.56
2022-10-18T00:47:05.090Z,84.18
2022-10-18T00:49:37.570Z,83.58
2022-10-18T00:52:35.750Z,83.23
2022-10-18T00:55:05.979Z,83.09
2022-10-18T00:57:34.424Z,81.46
2022-10-18T01:00:04.335Z,81.68
2022-10-18T01:02:32.901Z,81.34
2022-10-18T01:05:01.049Z,80.74
2022-10-18T01:07:57.023Z,80.49
2022-10-18T01:10:49.845Z,81.44
2022-10-18T01:13:39.564Z,81.01
2022-10-18T01:16:31.254Z,81.16
2022-10-18T01:19:27.305Z,82.46
2022-10-18T01:22:08.165Z,81.59
2022-10-18T01:24:52.854Z,81.34
2022-10-18T01:27:36.246Z,82.06
2022-10-18T01:30:15.267Z,81.86
2022-10-18T01:32:49.086Z,82.25
2022-10-18T01:35:33.032Z,83.03
2022-10-18T01:38:06.925Z,83.68
2022-10-18T01:40:37.042Z,84.53
2022-10-18T01:45:35.253Z,84.09
2022-10-18T01:48:03.934Z,84.10
2022-10-18T01:50:34.202Z,83.98
2022-10-18T01:53:02.552Z,83.90
2022-10-18T01:55:43.548Z,83.67
2022-10-18T01:58:40.416Z,82.65
2022-10-18T02:01:43.735Z,83.69
2022-10-18T02:04:33.799Z,84.10
2022-10-18T02:07:55.448Z,83.76
2022-10-18T02:11:00.005Z,83.51
2022-10-18T02:13:34.857Z,82.83
2022-10-18T02:16:09.978Z,83.52
2022-10-18T02:18:42.551Z,83.44
2022-10-18T02:21:15.948Z,84.07
2022-10-18T02:23:46.274Z,84.61
2022-10-18T02:26:16.107Z,84.02
2022-10-18T02:28:45.908Z,82.43
2022-10-18T02:31:26.467Z,83.49
2022-10-18T02:33:58.984Z,84.13
2022-10-18T02:36:39.089Z,83.45
2022-10-18T02:39:14.444Z,83.73
2022-10-18T02:41:43.025Z,84.16
2022-10-18T02:44:11.510Z,84.00
2022-10-18T02:46:40.613Z,84.23
2022-10-18T02:49:08.784Z,83.64
2022-10-18T02:51:36.728Z,83.80
2022-10-18T02:54:05.550Z,83.36
2022-10-18T02:56:33.631Z,82.71
2022-10-18T02:59:01.907Z,82.75
2022-10-18T03:01:29.919Z,81.97
2022-10-18T03:03:57.955Z,82.11
2022-10-18T03:06:26.047Z,82.26
2022-10-18T03:08:54.355Z,83.07
2022-10-18T03:11:22.599Z,82.45
2022-10-18T03:13:50.467Z,82.00
2022-10-18T03:16:18.953Z,82.36
2022-10-18T03:18:46.768Z,81.93
2022-10-18T03:21:14.798Z,81.53
2022-10-18T03:23:42.787Z,81.00
2022-10-18T03:26:10.849Z,80.94
2022-10-18T03:28:38.888Z,79.35
2022-10-18T03:31:07.069Z,78.42
2022-10-18T03:33:35.382Z,79.73
2022-10-18T03:36:03.353Z,79.41
2022-10-18T03:38:31.848Z,80.37
2022-10-18T03:40:59.817Z,80.43
2022-10-18T03:43:27.991Z,78.94
2022-10-18T03:45:56.309Z,79.15
2022-10-18T03:48:24.294Z,80.28
2022-10-18T03:50:52.222Z,80.92
2022-10-18T03:53:20.295Z,80.41
2022-10-18T03:55:52.871Z,80.37
2022-10-18T03:58:21.584Z,80.66
2022-10-18T04:00:51.484Z,80.32
2022-10-18T04:03:21.198Z,80.01
2022-10-18T04:05:49.682Z,80.89
2022-10-18T04:08:18.575Z,80.21
2022-10-18T04:10:46.667Z,80.78
2022-10-18T04:13:14.876Z,80.44
2022-10-18T04:15:43.454Z,80.74
2022-10-18T04:18:11.389Z,81.22
2022-10-18T04:20:39.387Z,81.16
2022-10-18T04:23:07.236Z,81.33
2022-10-18T04:25:35.289Z,80.96
2022-10-18T04:28:03.387Z,81.14
2022-10-18T04:30:31.307Z,80.12
2022-10-18T04:32:59.543Z,79.93
2022-10-18T04:35:27.822Z,80.66
2022-10-18T04:37:55.894Z,80.84
2022-10-18T04:40:23.971Z,81.11
2022-10-18T04:42:51.947Z,81.49
2022-10-18T04:45:19.921Z,80.78
2022-10-18T04:47:47.901Z,81.88
2022-10-18T04:50:15.898Z,82.22
2022-10-18T04:52:44.579Z,83.19
2022-10-18T04:55:12.433Z,82.67
2022-10-18T04:57:40.709Z,81.71
2022-10-18T05:00:09.144Z,82.05
2022-10-18T05:02:37.376Z,82.64
2022-10-18T05:05:08.114Z,82.94
2022-10-18T05:07:38.435Z,82.66
2022-10-18T05:10:07.843Z,82.90
2022-10-18T05:12:36.121Z,83.50
2022-10-18T05:15:04.816Z,83.25
2022-10-18T05:17:32.858Z,83.36
2022-10-18T05:20:00.926Z,83.84
2022-10-18T05:22:29.389Z,83.74
2022-10-18T05:24:57.935Z,82.68
2022-10-18T05:27:25.833Z,82.31
2022-10-18T05:29:53.643Z,83.27
2022-10-18T05:32:22.029Z,83.77
2022-10-18T05:34:50.350Z,83.57
2022-10-18T05:37:18.454Z,83.62
2022-10-18T05:39:46.401Z,84.19
2022-10-18T05:42:14.374Z,84.32
2022-10-18T05:44:42.886Z,83.99
2022-10-18T05:47:11.134Z,83.99
2022-10-18T05:49:39.191Z,83.10
2022-10-18T05:52:07.064Z,83.38
2022-10-18T05:54:35.114Z,83.55
2022-10-18T05:57:02.990Z,82.66
2022-10-18T05:59:30.952Z,82.63
2022-10-18T06:01:59.142Z,83.33
2022-10-18T06:04:27.150Z,83.34
2022-10-18T06:06:55.261Z,83.36
2022-10-18T06:09:23.426Z,82.83
2022-10-18T06:11:51.378Z,82.85
2022-10-18T06:14:19.252Z,82.12
2022-10-18T06:16:47.224Z,81.86
2022-10-18T06:19:15.613Z,81.87
2022-10-18T06:21:44.555Z,81.33
2022-10-18T06:24:12.510Z,79.89
2022-10-18T06:26:40.449Z,79.77
2022-10-18T06:29:08.527Z,80.58
2022-10-18T06:31:37.520Z,81.02
2022-10-18T06:34:05.682Z,80.52
2022-10-18T06:36:33.676Z,79.85
2022-10-18T06:39:01.641Z,77.95
2022-10-18T06:41:29.624Z,77.68
2022-10-18T06:43:57.597Z,79.27
2022-10-18T06:46:26.493Z,79.95
2022-10-18T06:48:54.677Z,79.30
2022-10-18T06:51:22.852Z,79.33
2022-10-18T06:54:05.870Z,78.41
2022-10-18T06:56:39.396Z,78.55
2022-10-18T06:59:07.443Z,77.94
2022-10-18T07:01:35.679Z,78.81
2022-10-18T07:04:04.002Z,77.86
2022-10-18T07:06:32.399Z,76.98
2022-10-18T07:09:00.264Z,75.92
2022-10-18T07:11:28.331Z,77.15
2022-10-18T07:14:00.600Z,78.08
2022-10-18T07:16:29.290Z,77.49
2022-10-18T07:18:57.571Z,77.07
2022-10-18T07:21:26.568Z,76.88
2022-10-18T07:23:56.941Z,76.27
2022-10-18T07:26:28.359Z,75.72
2022-10-18T07:29:04.764Z,76.63
2022-10-18T07:31:35.774Z,75.83
2022-10-18T07:34:05.353Z,76.10
2022-10-18T07:36:34.162Z,76.76
2022-10-18T07:39:02.116Z,77.12
2022-10-18T07:41:30.313Z,77.33
2022-10-18T07:43:58.193Z,76.52
2022-10-18T07:46:26.508Z,75.46
2022-10-18T07:48:55.321Z,74.71
2022-10-18T07:51:23.714Z,74.08
2022-10-18T07:53:52.083Z,74.64
2022-10-18T07:56:23.568Z,74.50
2022-10-18T07:58:54.001Z,75.48
2022-10-18T08:01:23.665Z,74.59
2022-10-18T08:03:52.701Z,74.07
2022-10-18T08:06:22.827Z,73.58
2022-10-18T08:08:50.793Z,73.43
2022-10-18T08:11:22.227Z,73.75
2022-10-18T08:13:51.674Z,74.64
2022-10-18T08:16:22.903Z,75.14
2022-10-18T08:18:51.534Z,75.47
2022-10-18T08:21:20.929Z,75.61
2022-10-18T08:23:49.196Z,75.31
2022-10-18T08:26:20.048Z,75.57
2022-10-18T08:28:58.171Z,75.21
2022-10-18T08:31:37.867Z,75.22
2022-10-18T08:34:05.846Z,75.14
2022-10-18T08:36:33.795Z,74.93
2022-10-18T08:39:01.710Z,74.84
2022-10-18T08:41:55.765Z,74.66
2022-10-18T08:44:25.433Z,74.54
2022-10-18T08:47:07.127Z,74.37
2022-10-18T08:49:47.743Z,74.20
2022-10-18T08:52:34.739Z,74.07
2022-10-18T08:55:09.162Z,73.98
2022-10-18T08:57:37.034Z,74.26
2022-10-18T09:00:18.667Z,73.59
2022-10-18T09:03:05.368Z,72.99
2022-10-18T09:05:45.492Z,72.79
2022-10-18T09:08:54.869Z,72.52
2022-10-18T09:11:46.905Z,72.38
2022-10-18T09:14:23.842Z,72.22
2022-10-18T09:16:55.014Z,71.97
2022-10-18T09:19:41.532Z,72.43
2022-10-18T09:22:21.081Z,72.19
2022-10-18T09:24:57.183Z,71.67
2022-10-18T09:27:42.194Z,71.07
2022-10-18T09:30:25.522Z,70.92
2022-10-18T09:33:05.464Z,70.86
2022-10-18T09:36:05.083Z,71.83
2022-10-18T09:38:41.359Z,70.78
2022-10-18T09:41:20.687Z,70.33
2022-10-18T09:43:59.825Z,70.01
2022-10-18T09:46:39.197Z,69.81
2022-10-18T09:49:19.068Z,69.29
2022-10-18T09:51:49.277Z,68.81
2022-10-18T09:54:23.592Z,69.01
2022-10-18T09:57:02.424Z,68.21
2022-10-18T09:59:50.874Z,68.65
2022-10-18T10:02:21.912Z,67.94
2022-10-18T10:04:51.134Z,68.29
2022-10-18T10:07:21.921Z,68.18
2022-10-18T10:10:14.620Z,67.49
2022-10-18T10:12:42.901Z,66.97
2022-10-18T10:15:19.344Z,66.44
2022-10-18T10:18:02.416Z,65.69
2022-10-18T10:20:37.432Z,67.30
2022-10-18T10:23:08.931Z,66.24
2022-10-18T10:25:38.235Z,66.67
2022-10-18T10:28:20.605Z,66.68
2022-10-18T10:30:48.616Z,66.57
2022-10-18T10:33:57.691Z,66.49
2022-10-18T10:36:25.645Z,66.83
2022-10-18T10:39:04.766Z,65.76
2022-10-18T10:41:33.613Z,66.24
2022-10-18T10:44:05.015Z,65.64
2022-10-18T10:46:36.898Z,66.26
2022-10-18T10:49:35.062Z,64.92
2022-10-18T10:52:08.849Z,65.13
2022-10-18T10:54:52.492Z,64.77
2022-10-18T10:57:26.196Z,63.37
2022-10-18T10:59:56.360Z,63.58
2022-10-18T11:02:33.512Z,62.88
2022-10-18T11:05:25.007Z,63.56
2022-10-18T11:07:57.013Z,63.76
2022-10-18T11:10:30.901Z,61.92
2022-10-18T11:13:03.629Z,61.48
2022-10-18T11:15:45.229Z,60.97
2022-10-18T11:18:27.819Z,61.26
2022-10-18T11:20:58.454Z,62.45
2022-10-18T11:23:33.179Z,62.30
2022-10-18T11:26:32.409Z,63.24
2022-10-18T11:29:30.079Z,63.56
2022-10-18T11:32:26.780Z,62.91
2022-10-18T11:35:16.655Z,62.54
2022-10-18T11:37:47.529Z,62.33
2022-10-18T11:40:27.471Z,61.31
2022-10-18T11:43:50.540Z,60.85
2022-10-18T11:46:22.909Z,60.27
2022-10-18T11:49:02.920Z,58.94
2022-10-18T11:52:07.984Z,59.39
2022-10-18T11:54:43.845Z,58.36
2022-10-18T11:57:37.743Z,58.66
2022-10-18T12:00:23.751Z,59.02
2022-10-18T12:03:18.680Z,58.45
2022-10-18T12:05:48.752Z,57.67
2022-10-18T12:08:23.882Z,57.33
2022-10-18T12:11:10.225Z,57.89
2022-10-18T12:13:55.447Z,57.23
2022-10-18T12:16:49.578Z,56.98
2022-10-18T12:19:28.872Z,56.74
2022-10-18T12:22:02.678Z,56.61
2022-10-18T12:24:33.116Z,56.83
2022-10-18T12:27:02.304Z,56.48
2022-10-18T12:29:40.259Z,57.16
2022-10-18T12:32:13.163Z,57.20
2022-10-18T12:34:49.770Z,57.52
2022-10-18T12:37:20.635Z,58.11
2022-10-18T12:40:11.423Z,58.49
2022-10-18T12:42:48.100Z,58.83
2022-10-18T12:45:42.592Z,59.33
2022-10-18T12:48:29.040Z,59.21
2022-10-18T12:51:17.081Z,59.52
2022-10-18T12:53:49.182Z,60.05
2022-10-18T12:56:39.721Z,60.62
2022-10-18T12:59:16.874Z,60.60
2022-10-18T13:01:50.758Z,60.56
2022-10-18T13:04:28.117Z,61.22
2022-10-18T13:06:59.659Z,60.94
2022-10-18T13:09:28.763Z,61.02
2022-10-18T13:12:16.545Z,61.38
2022-10-18T13:15:13.376Z,61.30
2022-10-18T13:17:55.217Z,61.49
2022-10-18T13:20:40.861Z,61.55
2022-10-18T13:23:09.203Z,61.55
2022-10-18T13:25:58.639Z,61.82
2022-10-18T13:28:26.898Z,61.85
2022-10-18T13:31:09.880Z,61.75
2022-10-18T13:33:40.767Z,61.89
2022-10-18T13:36:22.663Z,61.65
2022-10-18T13:38:54.141Z,61.41
2022-10-18T13:41:29.180Z,61.56
2022-10-18T13:44:02.648Z,61.26
2022-10-18T13:46:33.488Z,61.06
2022-10-18T13:49:40.056Z,61.08
2022-10-18T13:52:54.750Z,61.14
2022-10-18T13:55:45.363Z,61.33
2022-10-18T13:58:32.094Z,60.99
2022-10-18T14:01:03.663Z,61.00
2022-10-18T14:03:58.099Z,61.18
2022-10-18T14:06:36.325Z,61.81
2022-10-18T14:12:21.782Z,62.39
2022-10-18T14:15:03.533Z,62.33
2022-10-18T14:17:34.532Z,62.40
2022-10-18T14:20:20.738Z,62.71
2022-10-18T14:23:03.194Z,62.83
2022-10-18T14:25:35.157Z,62.94
2022-10-18T14:28:27.320Z,62.46
2022-10-18T14:31:05.553Z,62.32
2022-10-18T14:33:44.319Z,62.22
2022-10-18T14:36:15.669Z,62.56
2022-10-18T14:39:00.864Z,63.56
2022-10-18T14:41:30.955Z,63.69
2022-10-18T14:44:32.169Z,63.58
2022-10-18T14:47:22.527Z,63.10
2022-10-18T14:49:51.601Z,63.34
2022-10-18T14:52:26.089Z,63.15
2022-10-18T14:54:56.361Z,63.24
2022-10-18T14:57:42.453Z,63.44
2022-10-18T15:02:51.858Z,63.52
2022-10-18T15:05:23.722Z,63.71
2022-10-18T15:07:53.117Z,63.79
2022-10-18T15:10:33.688Z,64.09
2022-10-18T15:13:09.736Z,64.43
2022-10-18T15:15:39.370Z,64.44
2022-10-18T15:18:08.207Z,64.63
2022-10-18T15:20:37.812Z,64.91
2022-10-18T15:23:29.051Z,64.89
2022-10-18T15:26:04.622Z,64.92
2022-10-18T15:28:34.424Z,64.95
2022-10-18T15:31:03.334Z,65.30
2022-10-18T15:33:33.054Z,65.55
2022-10-18T15:36:17.963Z,65.59
2022-10-18T15:38:49.108Z,65.53
2022-10-18T15:41:57.986Z,65.57
2022-10-18T15:44:34.697Z,65.93
2022-10-18T15:47:11.940Z,65.82
2022-10-18T15:49:46.473Z,66.05
2022-10-18T15:52:38.209Z,66.56
2022-10-18T15:55:32.068Z,67.61
2022-10-18T15:58:11.306Z,67.85
2022-10-18T16:00:39.293Z,68.06
2022-10-18T16:03:08.966Z,68.48
2022-10-18T16:05:38.232Z,69.02
2022-10-18T16:08:06.383Z,69.97
2022-10-18T16:10:34.366Z,70.63
2022-10-18T16:13:02.524Z,70.35
2022-10-18T16:15:30.583Z,70.83
2022-10-18T16:17:58.654Z,71.68
2022-10-18T16:20:26.609Z,72.67
2022-10-18T16:22:54.512Z,72.56
2022-10-18T16:25:22.341Z,73.32
2022-10-18T16:27:50.590Z,72.93
2022-10-18T16:30:21.034Z,73.26
2022-10-18T16:32:48.964Z,73.25
2022-10-18T16:35:16.979Z,73.79
2022-10-18T16:37:44.772Z,74.43
2022-10-18T16:40:25.214Z,74.29
2022-10-18T16:42:53.057Z,74.72
2022-10-18T16:45:21.053Z,75.29
2022-10-18T16:47:48.983Z,75.31
2022-10-18T16:50:19.803Z,75.48
2022-10-18T16:52:47.803Z,76.07
2022-10-18T16:55:15.977Z,76.02
2022-10-18T16:57:43.897Z,76.78
2022-10-18T17:00:22.940Z,76.72
2022-10-18T17:02:51.900Z,77.26
2022-10-18T17:05:20.580Z,76.95
2022-10-18T17:07:49.271Z,77.15
2022-10-18T17:10:21.433Z,77.30
2022-10-18T17:12:49.348Z,77.74
2022-10-18T17:15:18.477Z,78.33
2022-10-18T17:17:47.385Z,78.05
2022-10-18T17:20:24.427Z,78.21
2022-10-18T17:22:54.497Z,78.16
2022-10-18T17:25:22.463Z,78.75
2022-10-18T17:27:50.484Z,79.61
2022-10-18T17:30:18.592Z,78.90
2022-10-18T17:32:46.444Z,78.94
2022-10-18T17:35:14.369Z,81.39
2022-10-18T17:37:45.316Z,80.96
2022-10-18T17:40:14.056Z,79.63
2022-10-18T17:42:42.533Z,79.84
2022-10-18T17:45:10.657Z,79.20
2022-10-18T17:47:38.523Z,79.17
2022-10-18T17:50:06.919Z,78.93
2022-10-18T17:52:34.833Z,78.95
2022-10-18T17:55:02.739Z,79.18
2022-10-18T17:57:30.933Z,80.59
2022-10-18T17:59:59.052Z,79.93
2022-10-18T18:02:26.886Z,80.15
2022-10-18T18:04:55.127Z,80.28
2022-10-18T18:07:23.000Z,80.33
2022-10-18T18:09:50.897Z,80.98
2022-10-18T18:12:18.915Z,81.83
2022-10-18T18:14:47.254Z,80.41
2022-10-18T18:17:17.017Z,80.88
2022-10-18T18:19:49.497Z,80.63
2022-10-18T18:22:17.446Z,80.16
2022-10-18T18:24:45.401Z,80.23
2022-10-18T18:27:13.325Z,80.73
2022-10-18T18:29:41.157Z,80.92
2022-10-18T18:32:09.390Z,81.66
2022-10-18T18:34:37.398Z,80.47
2022-10-18T18:37:05.271Z,82.02
2022-10-18T18:39:33.186Z,80.70
2022-10-18T18:42:01.873Z,80.67
2022-10-18T18:44:29.979Z,81.46
2022-10-18T18:46:58.280Z,81.18
2022-10-18T18:49:26.447Z,81.67
2022-10-18T18:51:54.607Z,82.18
2022-10-18T18:54:22.718Z,82.16
2022-10-18T18:56:51.452Z,80.82
2022-10-18T18:59:19.242Z,81.04
2022-10-18T19:01:47.580Z,81.92
2022-10-18T19:04:20.453Z,82.60
2022-10-18T19:06:48.290Z,81.45
2022-10-18T19:09:18.078Z,81.22
2022-10-18T19:11:48.238Z,81.92
2022-10-18T19:14:16.618Z,82.18
2022-10-18T19:16:53.745Z,82.22
2022-10-18T19:19:24.208Z,82.37
2022-10-18T19:21:54.953Z,82.41
2022-10-18T19:24:24.730Z,82.57
2022-10-18T19:26:55.591Z,82.72
2022-10-18T19:29:25.007Z,83.01
2022-10-18T19:31:55.825Z,82.68
2022-10-18T19:34:25.750Z,82.40
2022-10-18T19:36:54.278Z,82.71
2022-10-18T19:39:26.605Z,83.54
2022-10-18T19:41:56.422Z,83.19
2022-10-18T19:44:28.235Z,83.35
2022-10-18T19:46:56.260Z,83.34
2022-10-18T19:49:24.192Z,83.37
2022-10-18T19:51:52.616Z,83.11
2022-10-18T19:54:21.101Z,82.74
2022-10-18T19:56:49.379Z,82.87
2022-10-18T19:59:17.766Z,82.84
2022-10-18T20:01:46.191Z,83.00
2022-10-18T20:04:15.079Z,82.74
2022-10-18T20:06:43.371Z,83.24
2022-10-18T20:09:16.097Z,83.34
2022-10-18T20:11:47.706Z,83.49
2022-10-18T20:14:15.833Z,83.29
2022-10-18T20:16:43.710Z,83.89
2022-10-18T20:19:11.649Z,83.89
2022-10-18T20:21:39.524Z,83.73
2022-10-18T20:24:08.040Z,83.98
2022-10-18T20:26:36.525Z,82.69
2022-10-18T20:29:04.982Z,81.96
2022-10-18T20:31:34.596Z,82.72
2022-10-18T20:34:05.259Z,83.04
2022-10-18T20:36:34.008Z,82.92
2022-10-18T20:39:02.230Z,84.15
2022-10-18T20:41:33.372Z,84.04
2022-10-18T20:44:04.530Z,84.17
2022-10-18T20:46:35.524Z,83.29
2022-10-18T20:49:06.010Z,83.88
2022-10-18T20:51:35.296Z,84.17
2022-10-18T20:56:38.718Z,83.72
2022-10-18T20:59:07.426Z,83.43
2022-10-18T21:01:37.148Z,84.42
2022-10-18T21:04:08.011Z,84.51
2022-10-18T21:06:38.684Z,84.62
2022-10-18T21:09:18.279Z,84.78
2022-10-18T21:11:49.864Z,84.21
2022-10-18T21:14:20.894Z,84.15
2022-10-18T21:16:51.207Z,83.74
2022-10-18T21:19:25.278Z,84.27
2022-10-18T21:21:56.986Z,84.19
2022-10-18T21:24:25.887Z,83.52
2022-10-18T21:26:54.598Z,83.79
2022-10-18T21:29:23.603Z,83.80
2022-10-18T21:31:55.212Z,84.09
2022-10-18T21:34:23.157Z,84.16
2022-10-18T21:36:51.326Z,84.14
2022-10-18T21:39:22.116Z,84.24
2022-10-18T21:41:50.970Z,84.05
2022-10-18T21:44:18.841Z,84.46
2022-10-18T21:46:47.069Z,84.38
2022-10-18T21:49:15.562Z,84.43
2022-10-18T21:51:43.793Z,83.62
2022-10-18T21:54:14.380Z,83.87
2022-10-18T21:56:42.665Z,84.67
2022-10-18T21:59:14.345Z,84.45
2022-10-18T22:01:42.328Z,84.28
2022-10-18T22:04:22.520Z,84.51
2022-10-18T22:06:50.941Z,84.57
2022-10-18T22:09:19.677Z,84.70
2022-10-18T22:11:51.545Z,84.82
2022-10-18T22:14:20.160Z,84.83
2022-10-18T22:16:48.349Z,84.24
2022-10-18T22:19:16.327Z,84.32
2022-10-18T22:21:44.319Z,84.78
2022-10-18T22:24:12.154Z,84.75
2022-10-18T22:26:42.477Z,84.80
2022-10-18T22:29:14.643Z,85.08
2022-10-18T22:31:46.496Z,85.08
2022-10-18T22:34:20.520Z,85.21
2022-10-18T22:36:48.797Z,84.96
2022-10-18T22:39:16.784Z,85.17
2022-10-18T22:41:45.386Z,84.96
2022-10-18T22:44:15.397Z,85.05
2022-10-18T22:46:43.385Z,84.92
2022-10-18T22:49:11.833Z,84.98
2022-10-18T22:51:40.589Z,84.95
2022-10-18T22:54:09.209Z,85.07
2022-10-18T22:56:37.111Z,84.80
2022-10-18T22:59:05.125Z,84.86
2022-10-18T23:01:33.038Z,84.95
2022-10-18T23:04:01.691Z,84.94
2022-10-18T23:06:35.814Z,84.64
2022-10-18T23:09:07.245Z,85.08
2022-10-18T23:11:36.355Z,85.19
2022-10-18T23:14:06.360Z,85.07
2022-10-18T23:16:35.228Z,85.26
2022-10-18T23:19:03.813Z,85.13
2022-10-18T23:21:34.199Z,84.87
2022-10-18T23:24:02.069Z,84.98
2022-10-18T23:26:30.033Z,84.80
2022-10-18T23:28:57.964Z,84.66
2022-10-18T23:31:29.223Z,84.86
2022-10-18T23:33:59.505Z,84.90
2022-10-18T23:36:27.502Z,84.95
2022-10-18T23:38:56.201Z,85.17
2022-10-18T23:41:24.580Z,85.00
2022-10-18T23:43:52.892Z,84.93
2022-10-18T23:46:21.173Z,84.77
2022-10-18T23:48:49.688Z,85.03
2022-10-18T23:51:18.136Z,84.69
2022-10-18T23:53:46.382Z,84.78
2022-10-18T23:56:16.611Z,84.87
2022-10-18T23:58:45.563Z,84.84
